Time;durP1;ratioP1;P1;durP2;ratioP2;P2;SDS_P1;SDS_P2;PMS_P1;PMS_P2;Temp;Humidity;BMP_temperature;BMP_pressure;BME280_temperature;BME280_humidity;BME280_pressure;Samples;Min_cycle;Max_cycle;Signal;HPM_P1;HPM_P2
2024/01/03 00:00:15;;;;;;;;;;;;;;;;;;2211814;58;2768;-21
2024/01/03 00:02:46;;;;;;;;;;;;;;;;;;2213982;59;1935;-21
2024/01/03 00:05:20;;;;;;;;;;;;;;;;;;2211818;66;2374;-21
2024/01/03 00:07:51;;;;;;;;;;;;;;;;;;2213002;58;1856;-21
2024/01/03 00:10:43;;;;;;;;;;;;;;;;;;2211578;66;1877;-21
2024/01/03 00:13:26;;;;;;;;;;;;;;;;;;2211284;58;1995;-21
2024/01/03 00:15:59;;;;;;;;;;;;;;;;;;2211786;66;1919;-21
2024/01/03 00:18:46;;;;;;;;;;;;;;;;;;2213266;63;1999;-21
2024/01/03 00:21:18;;;;;;;;;;;;;;;;;;2209706;66;2267;-21
2024/01/03 00:23:50;;;;;;;;;;;;;;;;;;2217109;66;1272;-21
2024/01/03 00:26:23;;;;;;;;;;;;;;;;;;2211424;59;1937;-21
2024/01/03 00:28:54;;;;;;;;;;;;;;;;;;2212901;59;1978;-21
2024/01/03 00:31:41;;;;;;;;;;;;;;;;;;2215030;66;2032;-21
2024/01/03 00:34:20;;;;;;;;;;;;;;;;;;2210916;59;2819;-21
2024/01/03 00:36:51;;;;;;;;;;;;;;;;;;2213201;66;1912;-21
2024/01/03 00:39:37;;;;;;;;;;;;;;;;;;2213620;66;1948;-21
2024/01/03 00:42:07;;;;;;;;;;;;;;;;;;2212323;66;1998;-21
2024/01/03 00:44:37;;;;;;;;;;;;;;;;;;2214562;66;1970;-21
2024/01/03 00:47:08;;;;;;;;;;;;;;;;;;2212635;66;2151;-21
2024/01/03 00:49:38;;;;;;;;;;;;;;;;;;2212537;66;2411;-21
2024/01/03 00:52:09;;;;;;;;;;;;;;;;;;2214445;59;1681;-21
2024/01/03 00:54:39;;;;;;;;;;;;;;;;;;2212946;66;1942;-21
2024/01/03 00:57:10;;;;;;;;;;;;;;;;;;2211612;59;1937;-21
2024/01/03 00:59:40;;;;;;;;;;;;;;;;;;2212521;66;1918;-21
2024/01/03 01:02:11;;;;;;;;;;;;;;;;;;2210988;59;3518;-21
2024/01/03 01:04:41;;;;;;;;;;;;;;;;;;2211469;60;1776;-21
2024/01/03 01:07:12;;;;;;;;;;;;;;;;;;2211216;58;2147;-21
2024/01/03 01:09:43;;;;;;;;;;;;;;;;;;2211899;66;2635;-21
2024/01/03 01:12:13;;;;;;;;;;;;;;;;;;2211618;59;1974;-21
2024/01/03 01:14:43;;;;;;;;;;;;;;;;;;2213135;59;2578;-21
2024/01/03 01:17:14;;;;;;;;;;;;;;;;;;2211629;66;2006;-21
2024/01/03 01:19:44;;;;;;;;;;;;;;;;;;2213252;66;2019;-21
2024/01/03 01:22:15;;;;;;;;;;;;;;;;;;2211357;66;1932;-21
2024/01/03 01:24:45;;;;;;;;;;;;;;;;;;2213297;58;1970;-21
2024/01/03 01:27:16;;;;;;;;;;;;;;;;;;2213051;66;1992;-21
2024/01/03 01:29:46;;;;;;;;;;;;;;;;;;2213189;59;1841;-21
2024/01/03 01:32:25;;;;;;;;;;;;;;;;;;2211794;59;2530;-21
2024/01/03 01:34:56;;;;;;;;;;;;;;;;;;2213052;58;1756;-21
2024/01/03 01:37:26;;;;;;;;;;;;;;;;;;2211107;59;2092;-21
2024/01/03 01:39:56;;;;;;;;;;;;;;;;;;2212424;63;2026;-21
2024/01/03 01:42:28;;;;;;;;;;;;;;;;;;2211468;66;2227;-21
2024/01/03 01:44:58;;;;;;;;;;;;;;;;;;2212243;59;1920;-21
2024/01/03 01:47:29;;;;;;;;;;;;;;;;;;2211680;66;2052;-21
2024/01/03 01:49:59;;;;;;;;;;;;;;;;;;2213023;66;1827;-21
2024/01/03 01:52:30;;;;;;;;;;;;;;;;;;2213695;66;1856;-21
2024/01/03 01:55:01;;;;;;;;;;;;;;;;;;2213116;66;1919;-21
2024/01/03 01:57:32;;;;;;;;;;;;;;;;;;2212694;59;1931;-21
2024/01/03 02:00:03;;;;;;;;;;;;;;;;;;2211302;66;1928;-21
2024/01/03 02:02:49;;;;;;;;;;;;;;;;;;2213580;59;1958;-21
2024/01/03 02:05:19;;;;;;;;;;;;;;;;;;2210568;66;1947;-21
2024/01/03 02:07:50;;;;;;;;;;;;;;;;;;2213073;66;1890;-20
2024/01/03 02:10:20;;;;;;;;;;;;;;;;;;2211497;59;2270;-21
2024/01/03 02:12:51;;;;;;;;;;;;;;;;;;2214022;66;2044;-21
2024/01/03 02:15:23;;;;;;;;;;;;;;;;;;2212416;58;2297;-20
2024/01/03 02:17:55;;;;;;;;;;;;;;;;;;2212887;66;2128;-20
2024/01/03 02:20:25;;;;;;;;;;;;;;;;;;2211979;66;1886;-20
2024/01/03 02:22:56;;;;;;;;;;;;;;;;;;2213777;66;2067;-20
2024/01/03 02:25:26;;;;;;;;;;;;;;;;;;2212397;59;1855;-20
2024/01/03 02:27:56;;;;;;;;;;;;;;;;;;2213046;66;1893;-20
2024/01/03 02:30:27;;;;;;;;;;;;;;;;;;2212035;59;2007;-20
2024/01/03 02:32:57;;;;;;;;;;;;;;;;;;2213807;59;2151;-20
2024/01/03 02:35:27;;;;;;;;;;;;;;;;;;2211376;58;2245;-20
2024/01/03 02:37:58;;;;;;;;;;;;;;;;;;2213734;59;2016;-20
2024/01/03 02:40:28;;;;;;;;;;;;;;;;;;2211416;66;1927;-20
2024/01/03 02:42:58;;;;;;;;;;;;;;;;;;2213079;66;2302;-20
2024/01/03 02:45:29;;;;;;;;;;;;;;;;;;2211971;59;1954;-20
2024/01/03 02:47:59;;;;;;;;;;;;;;;;;;2213554;63;2469;-20
2024/01/03 02:50:30;;;;;;;;;;;;;;;;;;2211684;66;1836;-20
2024/01/03 02:53:01;;;;;;;;;;;;;;;;;;2207756;67;2143;-20
2024/01/03 02:55:32;;;;;;;;;;;;;;;;;;2211551;59;1942;-20
2024/01/03 02:58:02;;;;;;;;;;;;;;;;;;2214623;66;1946;-20
2024/01/03 03:00:32;;;;;;;;;;;;;;;;;;2210177;59;2121;-20
2024/01/03 03:03:03;;;;;;;;;;;;;;;;;;2213265;66;2592;-20
2024/01/03 03:05:33;;;;;;;;;;;;;;;;;;2213551;66;1787;-20
2024/01/03 03:08:04;;;;;;;;;;;;;;;;;;2213308;58;2065;-21
2024/01/03 03:10:34;;;;;;;;;;;;;;;;;;2212767;64;1934;-21
2024/01/03 03:13:11;;;;;;;;;;;;;;;;;;2213836;66;1895;-21
2024/01/03 03:15:42;;;;;;;;;;;;;;;;;;2213551;59;2255;-21
2024/01/03 03:18:13;;;;;;;;;;;;;;;;;;2211888;66;1900;-21
2024/01/03 03:20:44;;;;;;;;;;;;;;;;;;2213106;66;2024;-21
2024/01/03 03:23:14;;;;;;;;;;;;;;;;;;2212769;66;1847;-21
2024/01/03 03:25:45;;;;;;;;;;;;;;;;;;2213046;59;1967;-21
2024/01/03 03:28:15;;;;;;;;;;;;;;;;;;2215375;66;2236;-21
2024/01/03 03:30:45;;;;;;;;;;;;;;;;;;2212834;59;1854;-21
2024/01/03 03:33:16;;;;;;;;;;;;;;;;;;2212214;59;2225;-21
2024/01/03 03:35:46;;;;;;;;;;;;;;;;;;2212744;59;2064;-21
2024/01/03 03:38:16;;;;;;;;;;;;;;;;;;2212269;59;3062;-21
2024/01/03 03:40:47;;;;;;;;;;;;;;;;;;2213306;66;1846;-21
2024/01/03 03:43:29;;;;;;;;;;;;;;;;;;2215696;66;1779;-21
2024/01/03 03:45:59;;;;;;;;;;;;;;;;;;2212382;59;1783;-21
2024/01/03 03:48:30;;;;;;;;;;;;;;;;;;2211918;66;2140;-21
2024/01/03 03:51:01;;;;;;;;;;;;;;;;;;2211878;66;1855;-21
2024/01/03 03:53:31;;;;;;;;;;;;;;;;;;2211329;66;1808;-21
2024/01/03 03:56:02;;;;;;;;;;;;;;;;;;2211669;59;2684;-21
2024/01/03 03:58:32;;;;;;;;;;;;;;;;;;2210704;66;2328;-21
2024/01/03 04:01:03;;;;;;;;;;;;;;;;;;2212379;59;1740;-21
2024/01/03 04:03:33;;;;;;;;;;;;;;;;;;2212036;59;1853;-21
2024/01/03 04:06:03;;;;;;;;;;;;;;;;;;2215289;66;1886;-21
2024/01/03 04:08:34;;;;;;;;;;;;;;;;;;2212070;58;2323;-20
2024/01/03 04:11:04;;;;;;;;;;;;;;;;;;2211527;59;1825;-21
2024/01/03 04:13:36;;;;;;;;;;;;;;;;;;2212190;58;1849;-19
2024/01/03 04:16:09;;;;;;;;;;;;;;;;;;2211713;59;1952;-20
2024/01/03 04:18:39;;;;;;;;;;;;;;;;;;2212157;59;2114;-21
2024/01/03 04:21:10;;;;;;;;;;;;;;;;;;2211498;66;2125;-19
2024/01/03 04:23:40;;;;;;;;;;;;;;;;;;2209650;59;1923;-21
2024/01/03 04:26:10;;;;;;;;;;;;;;;;;;2211560;58;2467;-21
2024/01/03 04:28:41;;;;;;;;;;;;;;;;;;2211603;58;1756;-19
2024/01/03 04:31:11;;;;;;;;;;;;;;;;;;2209795;59;2442;-21
2024/01/03 04:33:42;;;;;;;;;;;;;;;;;;2213395;58;2459;-21
2024/01/03 04:36:13;;;;;;;;;;;;;;;;;;2208058;58;2319;-18
2024/01/03 04:38:43;;;;;;;;;;;;;;;;;;2211845;66;2158;-19
2024/01/03 04:41:15;;;;;;;;;;;;;;;;;;2211489;59;1990;-19
2024/01/03 04:43:46;;;;;;;;;;;;;;;;;;2210840;66;2408;-19
2024/01/03 04:46:16;;;;;;;;;;;;;;;;;;2209944;59;1835;-18
2024/01/03 04:48:47;;;;;;;;;;;;;;;;;;2209216;58;2030;-19
2024/01/03 04:51:17;;;;;;;;;;;;;;;;;;2209864;66;2475;-19
2024/01/03 04:53:48;;;;;;;;;;;;;;;;;;2208536;59;2279;-19
2024/01/03 04:56:18;;;;;;;;;;;;;;;;;;2210913;66;1931;-19
2024/01/03 04:58:49;;;;;;;;;;;;;;;;;;2210712;59;2125;-21
2024/01/03 05:01:19;;;;;;;;;;;;;;;;;;2208723;59;2338;-21
2024/01/03 05:03:50;;;;;;;;;;;;;;;;;;2210720;59;2224;-21
2024/01/03 05:06:20;;;;;;;;;;;;;;;;;;2209203;58;2306;-21
2024/01/03 05:08:51;;;;;;;;;;;;;;;;;;2209036;66;1867;-21
2024/01/03 05:11:21;;;;;;;;;;;;;;;;;;2210143;58;2176;-22
2024/01/03 05:13:52;;;;;;;;;;;;;;;;;;2211369;58;2446;-21
2024/01/03 05:16:22;;;;;;;;;;;;;;;;;;2208044;59;2266;-21
2024/01/03 05:18:53;;;;;;;;;;;;;;;;;;2211691;58;2425;-22
2024/01/03 05:21:23;;;;;;;;;;;;;;;;;;2209780;66;1867;-22
2024/01/03 05:23:54;;;;;;;;;;;;;;;;;;2213586;58;2077;-21
2024/01/03 05:26:25;;;;;;;;;;;;;;;;;;2210143;59;2198;-22
2024/01/03 05:28:56;;;;;;;;;;;;;;;;;;2210941;59;1879;-22
2024/01/03 05:31:26;;;;;;;;;;;;;;;;;;2209552;58;2366;-22
2024/01/03 05:33:57;;;;;;;;;;;;;;;;;;2211015;59;2924;-21
2024/01/03 05:36:27;;;;;;;;;;;;;;;;;;2210744;59;1940;-22
2024/01/03 05:38:57;;;;;;;;;;;;;;;;;;2211236;66;3071;-21
2024/01/03 05:41:28;;;;;;;;;;;;;;;;;;2209074;59;1735;-21
2024/01/03 05:43:58;;;;;;;;;;;;;;;;;;2211172;59;1903;-22
2024/01/03 05:46:28;;;;;;;;;;;;;;;;;;2210670;59;2529;-21
2024/01/03 05:48:59;;;;;;;;;;;;;;;;;;2212636;58;1913;-19
2024/01/03 05:51:29;;;;;;;;;;;;;;;;;;2210373;59;2624;-22
2024/01/03 05:54:00;;;;;;;;;;;;;;;;;;2212243;66;1825;-19
2024/01/03 05:56:30;;;;;;;;;;;;;;;;;;2204660;59;1941;-19
2024/01/03 05:59:01;;;;;;;;;;;;;;;;;;2212106;66;1739;-19
2024/01/03 06:01:32;;;;;;;;;;;;;;;;;;2210167;59;1990;-19
2024/01/03 06:04:02;;;;;;;;;;;;;;;;;;2211599;59;1803;-19
2024/01/03 06:06:33;;;;;;;;;;;;;;;;;;2208227;66;1981;-22
2024/01/03 06:09:03;;;;;;;;;;;;;;;;;;2211868;59;1826;-21
2024/01/03 06:11:34;;;;;;;;;;;;;;;;;;2211279;59;1851;-21
2024/01/03 06:14:05;;;;;;;;;;;;;;;;;;2212397;58;1627;-21
2024/01/03 06:16:35;;;;;;;;;;;;;;;;;;2209394;59;2075;-21
2024/01/03 06:19:06;;;;;;;;;;;;;;;;;;2210913;66;1914;-19
2024/01/03 06:21:36;;;;;;;;;;;;;;;;;;2210751;66;1943;-19
2024/01/03 06:24:06;;;;;;;;;;;;;;;;;;2212076;66;1875;-19
2024/01/03 06:26:37;;;;;;;;;;;;;;;;;;2211802;66;1807;-19
2024/01/03 06:29:08;;;;;;;;;;;;;;;;;;2211498;59;2178;-21
2024/01/03 06:31:38;;;;;;;;;;;;;;;;;;2207282;59;2357;-21
2024/01/03 06:34:09;;;;;;;;;;;;;;;;;;2210983;59;2404;-21
2024/01/03 06:36:39;;;;;;;;;;;;;;;;;;2207875;66;1947;-21
2024/01/03 06:39:10;;;;;;;;;;;;;;;;;;2211452;66;1882;-19
2024/01/03 06:41:40;;;;;;;;;;;;;;;;;;2210249;59;1945;-19
2024/01/03 06:44:11;;;;;;;;;;;;;;;;;;2211660;66;1894;-19
2024/01/03 06:46:41;;;;;;;;;;;;;;;;;;2209588;66;2173;-19
2024/01/03 06:49:11;;;;;;;;;;;;;;;;;;2211755;58;1788;-19
2024/01/03 06:51:43;;;;;;;;;;;;;;;;;;2210867;66;1968;-19
2024/01/03 06:54:14;;;;;;;;;;;;;;;;;;2208844;63;1993;-21
2024/01/03 06:56:44;;;;;;;;;;;;;;;;;;2208435;59;2149;-19
2024/01/03 06:59:15;;;;;;;;;;;;;;;;;;2212316;59;1924;-21
2024/01/03 07:01:46;;;;;;;;;;;;;;;;;;2207557;59;1805;-21
2024/01/03 07:04:16;;;;;;;;;;;;;;;;;;2212508;59;1991;-21
2024/01/03 07:06:47;;;;;;;;;;;;;;;;;;2210822;58;2076;-21
2024/01/03 07:09:17;;;;;;;;;;;;;;;;;;2210737;59;1852;-21
2024/01/03 07:11:48;;;;;;;;;;;;;;;;;;2210217;66;2093;-21
2024/01/03 07:14:18;;;;;;;;;;;;;;;;;;2209207;59;1834;-21
2024/01/03 07:16:49;;;;;;;;;;;;;;;;;;2211119;59;1943;-21
2024/01/03 07:19:19;;;;;;;;;;;;;;;;;;2212503;58;2787;-21
2024/01/03 07:21:50;;;;;;;;;;;;;;;;;;2209427;59;2392;-21
2024/01/03 07:24:21;;;;;;;;;;;;;;;;;;2210984;59;1874;-21
2024/01/03 07:26:52;;;;;;;;;;;;;;;;;;2211627;59;2583;-20
2024/01/03 07:29:22;;;;;;;;;;;;;;;;;;2209953;59;2036;-20
2024/01/03 07:31:52;;;;;;;;;;;;;;;;;;2212928;58;2300;-21
2024/01/03 07:34:23;;;;;;;;;;;;;;;;;;2210789;58;2531;-21
2024/01/03 07:36:54;;;;;;;;;;;;;;;;;;2211975;59;2694;-19
2024/01/03 07:39:24;;;;;;;;;;;;;;;;;;2210874;66;2643;-20
2024/01/03 07:41:54;;;;;;;;;;;;;;;;;;2210948;58;2598;-19
2024/01/03 07:44:25;;;;;;;;;;;;;;;;;;2206582;59;2312;-21
2024/01/03 07:46:55;;;;;;;;;;;;;;;;;;2211595;66;2233;-21
2024/01/03 07:49:25;;;;;;;;;;;;;;;;;;2209399;66;2386;-21
2024/01/03 07:51:56;;;;;;;;;;;;;;;;;;2211810;66;1655;-20
2024/01/03 07:54:26;;;;;;;;;;;;;;;;;;2209772;59;2616;-21
2024/01/03 07:56:57;;;;;;;;;;;;;;;;;;2211182;59;2091;-21
2024/01/03 07:59:28;;;;;;;;;;;;;;;;;;2210216;59;2491;-21
2024/01/03 08:01:58;;;;;;;;;;;;;;;;;;2211852;59;1936;-19
2024/01/03 08:04:29;;;;;;;;;;;;;;;;;;2210293;59;2150;-21
2024/01/03 08:07:00;;;;;;;;;;;;;;;;;;2212375;58;2149;-19
2024/01/03 08:09:30;;;;;;;;;;;;;;;;;;2210965;59;2454;-21
2024/01/03 08:12:01;;;;;;;;;;;;;;;;;;2211368;59;2768;-19
2024/01/03 08:14:32;;;;;;;;;;;;;;;;;;2207554;59;2015;-19
2024/01/03 08:17:02;;;;;;;;;;;;;;;;;;2211280;59;2127;-21
2024/01/03 08:19:33;;;;;;;;;;;;;;;;;;2210760;59;2763;-19
2024/01/03 08:22:04;;;;;;;;;;;;;;;;;;2208735;59;2376;-21
2024/01/03 08:24:35;;;;;;;;;;;;;;;;;;2211071;58;2611;-21
2024/01/03 08:27:05;;;;;;;;;;;;;;;;;;2212941;59;2223;-19
2024/01/03 08:29:37;;;;;;;;;;;;;;;;;;2210569;58;2288;-19
2024/01/03 08:32:08;;;;;;;;;;;;;;;;;;2207432;53;2647;-19
2024/01/03 08:34:38;;;;;;;;;;;;;;;;;;2208835;59;1853;-21
2024/01/03 08:37:08;;;;;;;;;;;;;;;;;;2208868;59;5878;-19
2024/01/03 08:39:41;;;;;;;;;;;;;;;;;;2203161;59;1873;-19
2024/01/03 08:42:11;;;;;;;;;;;;;;;;;;2201734;59;2210;-20
2024/01/03 08:44:42;;;;;;;;;;;;;;;;;;2203686;59;2145;-20
2024/01/03 08:47:13;;;;;;;;;;;;;;;;;;2204731;67;1881;-21
2024/01/03 08:49:45;;;;;;;;;;;;;;;;;;2204329;59;2046;-19
2024/01/03 08:52:16;;;;;;;;;;;;;;;;;;2203980;59;2282;-20
2024/01/03 08:54:46;;;;;;;;;;;;;;;;;;2203325;59;2665;-19
2024/01/03 08:57:17;;;;;;;;;;;;;;;;;;2204185;59;2268;-19
2024/01/03 08:59:47;;;;;;;;;;;;;;;;;;2203398;59;2683;-19
2024/01/03 09:02:18;;;;;;;;;;;;;;;;;;2204653;59;1772;-19
2024/01/03 09:04:50;;;;;;;;;;;;;;;;;;2203067;59;2919;-19
2024/01/03 09:07:20;;;;;;;;;;;;;;;;;;2204887;59;2672;-19
2024/01/03 09:09:51;;;;;;;;;;;;;;;;;;2205674;67;2003;-19
2024/01/03 09:12:22;;;;;;;;;;;;;;;;;;2205078;59;2636;-19
2024/01/03 09:14:52;;;;;;;;;;;;;;;;;;2200891;59;2474;-20
2024/01/03 09:17:23;;;;;;;;;;;;;;;;;;2203688;59;2266;-19
2024/01/03 09:19:53;;;;;;;;;;;;;;;;;;2203683;67;1914;-21
2024/01/03 09:22:24;;;;;;;;;;;;;;;;;;2204785;67;1985;-19
2024/01/03 09:24:54;;;;;;;;;;;;;;;;;;2205220;59;1814;-21
2024/01/03 09:27:25;;;;;;;;;;;;;;;;;;2204623;67;2079;-20
2024/01/03 09:29:55;;;;;;;;;;;;;;;;;;2202415;59;2569;-19
2024/01/03 09:32:25;;;;;;;;;;;;;;;;;;2205609;59;2363;-20
2024/01/03 09:34:56;;;;;;;;;;;;;;;;;;2205220;59;2057;-20
2024/01/03 09:37:29;;;;;;;;;;;;;;;;;;2204437;59;1937;-19
2024/01/03 09:39:59;;;;;;;;;;;;;;;;;;2205367;59;3453;-20
2024/01/03 09:42:30;;;;;;;;;;;;;;;;;;2199608;59;4175;-21
2024/01/03 09:45:01;;;;;;;;;;;;;;;;;;2196715;59;4128;-21
2024/01/03 09:47:31;;;;;;;;;;;;;;;;;;2201971;59;2448;-19
2024/01/03 09:50:02;;;;;;;;;;;;;;;;;;2201155;67;2502;-19
2024/01/03 09:52:34;;;;;;;;;;;;;;;;;;2200580;59;2063;-21
2024/01/03 09:55:05;;;;;;;;;;;;;;;;;;2204719;67;1838;-21
2024/01/03 09:57:39;;;;;;;;;;;;;;;;;;2205399;67;2111;-19
2024/01/03 10:00:10;;;;;;;;;;;;;;;;;;2204716;59;1881;-21
2024/01/03 10:02:40;;;;;;;;;;;;;;;;;;2203310;59;2009;-19
2024/01/03 10:05:18;;;;;;;;;;;;;;;;;;2202093;59;2284;-19
2024/01/03 10:07:49;;;;;;;;;;;;;;;;;;2202940;59;1865;-21
2024/01/03 10:10:30;;;;;;;;;;;;;;;;;;2204894;59;1783;-20
2024/01/03 10:13:16;;;;;;;;;;;;;;;;;;2204814;59;1861;-21
2024/01/03 10:15:47;;;;;;;;;;;;;;;;;;2203248;67;1811;-21
2024/01/03 10:18:18;;;;;;;;;;;;;;;;;;2205297;59;2560;-20
2024/01/03 10:20:48;;;;;;;;;;;;;;;;;;2203962;59;1872;-20
2024/01/03 10:23:19;;;;;;;;;;;;;;;;;;2206793;59;1699;-19
2024/01/03 10:25:54;;;;;;;;;;;;;;;;;;2199659;59;4409;-21
2024/01/03 10:28:25;;;;;;;;;;;;;;;;;;2205289;59;2237;-20
2024/01/03 10:30:57;;;;;;;;;;;;;;;;;;2202377;59;1770;-21
2024/01/03 10:33:27;;;;;;;;;;;;;;;;;;2204793;59;2127;-20
2024/01/03 10:35:58;;;;;;;;;;;;;;;;;;2203757;59;2529;-20
2024/01/03 10:38:29;;;;;;;;;;;;;;;;;;2202980;59;2743;-21
2024/01/03 10:41:00;;;;;;;;;;;;;;;;;;2204808;59;3192;-20
2024/01/03 10:43:31;;;;;;;;;;;;;;;;;;2204790;67;3983;-20
2024/01/03 10:46:03;;;;;;;;;;;;;;;;;;2203971;67;2028;-19
2024/01/03 10:48:33;;;;;;;;;;;;;;;;;;2204117;59;1960;-18
2024/01/03 10:51:04;;;;;;;;;;;;;;;;;;2203363;59;2473;-20
2024/01/03 10:53:40;;;;;;;;;;;;;;;;;;2202316;59;2907;-18
2024/01/03 10:56:12;;;;;;;;;;;;;;;;;;2203510;59;2768;-20
2024/01/03 10:58:43;;;;;;;;;;;;;;;;;;2193729;59;5061;-18
2024/01/03 11:01:19;;;;;;;;;;;;;;;;;;2202268;59;5827;-18
2024/01/03 11:04:16;;;;;;;;;;;;;;;;;;2199158;59;4083;-20
2024/01/03 11:06:46;;;;;;;;;;;;;;;;;;2193579;59;5467;-18
2024/01/03 11:09:16;;;;;;;;;;;;;;;;;;2197699;59;9039;-18
2024/01/03 11:11:47;;;;;;;;;;;;;;;;;;2198424;59;5042;-18
2024/01/03 11:14:17;;;;;;;;;;;;;;;;;;2205484;59;3249;-20
2024/01/03 11:16:47;;;;;;;;;;;;;;;;;;2200233;59;2048;-20
2024/01/03 11:19:26;;;;;;;;;;;;;;;;;;2201584;59;2347;-20
2024/01/03 11:21:58;;;;;;;;;;;;;;;;;;2199943;59;1802;-20
2024/01/03 11:24:28;;;;;;;;;;;;;;;;;;2195756;59;5048;-20
2024/01/03 11:27:03;;;;;;;;;;;;;;;;;;2199829;67;2241;-20
2024/01/03 11:29:35;;;;;;;;;;;;;;;;;;2199735;60;2955;-20
2024/01/03 11:32:06;;;;;;;;;;;;;;;;;;2200291;59;2155;-18
2024/01/03 11:34:37;;;;;;;;;;;;;;;;;;2198406;67;1824;-18
2024/01/03 11:37:11;;;;;;;;;;;;;;;;;;2200307;59;2007;-18
2024/01/03 11:39:43;;;;;;;;;;;;;;;;;;2201428;59;2235;-18
2024/01/03 11:42:21;;;;;;;;;;;;;;;;;;2199613;59;3026;-20
2024/01/03 11:45:07;;;;;;;;;;;;;;;;;;2199140;60;1893;-20
2024/01/03 11:47:40;;;;;;;;;;;;;;;;;;2199055;59;2719;-18
2024/01/03 11:50:12;;;;;;;;;;;;;;;;;;2199675;64;1799;-18
2024/01/03 11:52:45;;;;;;;;;;;;;;;;;;2198492;67;2631;-20
2024/01/03 11:55:17;;;;;;;;;;;;;;;;;;2201259;59;1910;-20
2024/01/03 11:57:48;;;;;;;;;;;;;;;;;;2199232;59;3282;-20
2024/01/03 12:00:20;;;;;;;;;;;;;;;;;;2201426;59;2618;-20
2024/01/03 12:02:57;;;;;;;;;;;;;;;;;;2199432;67;1846;-20
2024/01/03 12:05:28;;;;;;;;;;;;;;;;;;2201894;59;2007;-18
2024/01/03 12:07:59;;;;;;;;;;;;;;;;;;2199099;59;1850;-18
2024/01/03 12:10:29;;;;;;;;;;;;;;;;;;2201720;67;1762;-20
2024/01/03 12:12:59;;;;;;;;;;;;;;;;;;2199671;67;1758;-18
2024/01/03 12:15:30;;;;;;;;;;;;;;;;;;2201331;59;2173;-18
2024/01/03 12:18:04;;;;;;;;;;;;;;;;;;2199324;60;2369;-20
2024/01/03 12:20:34;;;;;;;;;;;;;;;;;;2200703;59;2236;-18
2024/01/03 12:23:09;;;;;;;;;;;;;;;;;;2200471;59;2076;-20
2024/01/03 12:25:40;;;;;;;;;;;;;;;;;;2199528;67;1977;-18
2024/01/03 12:28:13;;;;;;;;;;;;;;;;;;2200964;59;2130;-18
2024/01/03 12:30:43;;;;;;;;;;;;;;;;;;2199242;59;2986;-18
2024/01/03 12:33:15;;;;;;;;;;;;;;;;;;2201659;59;3022;-18
2024/01/03 12:35:51;;;;;;;;;;;;;;;;;;2198656;59;2623;-18
2024/01/03 12:38:22;;;;;;;;;;;;;;;;;;2200874;67;1941;-18
2024/01/03 12:40:53;;;;;;;;;;;;;;;;;;2199543;59;2853;-18
2024/01/03 12:43:23;;;;;;;;;;;;;;;;;;2195658;59;3407;-20
2024/01/03 12:45:54;;;;;;;;;;;;;;;;;;2193896;59;2163;-18
2024/01/03 12:48:24;;;;;;;;;;;;;;;;;;2200872;59;3267;-20
2024/01/03 12:50:54;;;;;;;;;;;;;;;;;;2198520;59;2858;-20
2024/01/03 12:53:25;;;;;;;;;;;;;;;;;;2200354;59;2303;-18
2024/01/03 12:55:55;;;;;;;;;;;;;;;;;;2202213;59;2087;-18
2024/01/03 12:58:26;;;;;;;;;;;;;;;;;;2199652;59;2151;-18
2024/01/03 13:00:58;;;;;;;;;;;;;;;;;;2198023;59;2710;-19
2024/01/03 13:03:28;;;;;;;;;;;;;;;;;;2199156;59;2384;-18
2024/01/03 13:05:58;;;;;;;;;;;;;;;;;;2200254;59;2659;-20
2024/01/03 13:08:29;;;;;;;;;;;;;;;;;;2201146;59;1805;-20
2024/01/03 13:10:59;;;;;;;;;;;;;;;;;;2198802;59;1832;-20
2024/01/03 13:13:30;;;;;;;;;;;;;;;;;;2199653;59;2311;-20
2024/01/03 13:16:00;;;;;;;;;;;;;;;;;;2197395;59;2638;-20
2024/01/03 13:18:31;;;;;;;;;;;;;;;;;;2199165;59;2069;-20
2024/01/03 13:21:01;;;;;;;;;;;;;;;;;;2198004;67;1802;-20
2024/01/03 13:23:32;;;;;;;;;;;;;;;;;;2200313;59;1781;-20
2024/01/03 13:26:02;;;;;;;;;;;;;;;;;;2198360;59;2177;-18
2024/01/03 13:28:33;;;;;;;;;;;;;;;;;;2201232;59;2595;-19
2024/01/03 13:31:05;;;;;;;;;;;;;;;;;;2200856;59;2214;-20
2024/01/03 13:33:35;;;;;;;;;;;;;;;;;;2199604;59;2124;-20
2024/01/03 13:36:06;;;;;;;;;;;;;;;;;;2198887;59;2204;-20
2024/01/03 13:38:37;;;;;;;;;;;;;;;;;;2200689;59;1922;-19
2024/01/03 13:41:08;;;;;;;;;;;;;;;;;;2198700;67;1921;-19
2024/01/03 13:43:38;;;;;;;;;;;;;;;;;;2196830;59;2773;-20
2024/01/03 13:46:13;;;;;;;;;;;;;;;;;;2199609;59;3610;-18
2024/01/03 13:48:44;;;;;;;;;;;;;;;;;;2199058;59;3084;-18
2024/01/03 13:51:14;;;;;;;;;;;;;;;;;;2200246;59;1921;-20
2024/01/03 13:53:45;;;;;;;;;;;;;;;;;;2199057;59;2254;-20
2024/01/03 13:56:20;;;;;;;;;;;;;;;;;;2199939;59;2092;-19
2024/01/03 13:58:50;;;;;;;;;;;;;;;;;;2197233;59;1895;-18
2024/01/03 14:01:20;;;;;;;;;;;;;;;;;;2201153;59;3248;-18
2024/01/03 14:03:51;;;;;;;;;;;;;;;;;;2200322;59;2082;-18
2024/01/03 14:06:21;;;;;;;;;;;;;;;;;;2201853;59;1784;-21
2024/01/03 14:08:52;;;;;;;;;;;;;;;;;;2198145;59;1804;-20
2024/01/03 14:11:22;;;;;;;;;;;;;;;;;;2201163;59;2716;-20
2024/01/03 14:13:52;;;;;;;;;;;;;;;;;;2201010;59;2548;-20
2024/01/03 14:16:23;;;;;;;;;;;;;;;;;;2201705;59;1992;-20
2024/01/03 14:18:54;;;;;;;;;;;;;;;;;;2200383;59;2929;-20
2024/01/03 14:21:24;;;;;;;;;;;;;;;;;;2205622;59;3193;-20
2024/01/03 14:23:54;;;;;;;;;;;;;;;;;;2205757;59;1989;-20
2024/01/03 14:26:25;;;;;;;;;;;;;;;;;;2205082;59;2257;-20
2024/01/03 14:28:56;;;;;;;;;;;;;;;;;;2208162;53;3092;-18
2024/01/03 14:31:26;;;;;;;;;;;;;;;;;;2203862;59;2443;-19
2024/01/03 14:33:57;;;;;;;;;;;;;;;;;;2203284;59;2136;-20
2024/01/03 14:36:27;;;;;;;;;;;;;;;;;;2204707;59;1951;-20
2024/01/03 14:38:59;;;;;;;;;;;;;;;;;;2202318;59;1907;-20
2024/01/03 14:41:30;;;;;;;;;;;;;;;;;;2201613;59;1834;-18
2024/01/03 14:44:04;;;;;;;;;;;;;;;;;;2202533;67;1919;-19
2024/01/03 14:46:34;;;;;;;;;;;;;;;;;;2205414;59;1801;-19
2024/01/03 14:49:05;;;;;;;;;;;;;;;;;;2202368;59;2248;-19
2024/01/03 14:51:37;;;;;;;;;;;;;;;;;;2202204;59;3751;-18
2024/01/03 14:54:08;;;;;;;;;;;;;;;;;;2204020;59;2142;-18
2024/01/03 14:56:40;;;;;;;;;;;;;;;;;;2203561;59;2036;-20
2024/01/03 14:59:14;;;;;;;;;;;;;;;;;;2202496;67;1942;-18
2024/01/03 15:01:44;;;;;;;;;;;;;;;;;;2204095;67;1960;-20
2024/01/03 15:04:15;;;;;;;;;;;;;;;;;;2202586;59;1958;-20
2024/01/03 15:06:56;;;;;;;;;;;;;;;;;;2203346;67;1800;-20
2024/01/03 15:09:27;;;;;;;;;;;;;;;;;;2201758;67;2002;-18
2024/01/03 15:11:58;;;;;;;;;;;;;;;;;;2201668;59;2418;-20
2024/01/03 15:14:29;;;;;;;;;;;;;;;;;;2203956;59;1935;-18
2024/01/03 15:17:00;;;;;;;;;;;;;;;;;;2200430;59;1949;-20
2024/01/03 15:19:31;;;;;;;;;;;;;;;;;;2202863;59;2105;-20
2024/01/03 15:22:19;;;;;;;;;;;;;;;;;;2200064;59;2771;-20
2024/01/03 15:24:49;;;;;;;;;;;;;;;;;;2202551;59;1984;-20
2024/01/03 15:27:20;;;;;;;;;;;;;;;;;;2201920;67;1870;-20
2024/01/03 15:29:50;;;;;;;;;;;;;;;;;;2202916;59;2501;-20
2024/01/03 15:32:21;;;;;;;;;;;;;;;;;;2201010;59;2875;-18
2024/01/03 15:34:51;;;;;;;;;;;;;;;;;;2202367;59;2469;-18
2024/01/03 15:37:23;;;;;;;;;;;;;;;;;;2203308;67;2422;-20
2024/01/03 15:39:53;;;;;;;;;;;;;;;;;;2203070;59;2267;-18
2024/01/03 15:42:24;;;;;;;;;;;;;;;;;;2203386;59;2282;-18
2024/01/03 15:44:55;;;;;;;;;;;;;;;;;;2202822;59;1823;-18
2024/01/03 15:47:25;;;;;;;;;;;;;;;;;;2203612;59;2288;-20
2024/01/03 15:49:59;;;;;;;;;;;;;;;;;;2201994;59;1893;-18
2024/01/03 15:52:29;;;;;;;;;;;;;;;;;;2203419;59;1894;-18
2024/01/03 15:55:00;;;;;;;;;;;;;;;;;;2202024;59;2520;-18
2024/01/03 15:57:30;;;;;;;;;;;;;;;;;;2203206;59;1945;-20
2024/01/03 16:00:04;;;;;;;;;;;;;;;;;;2201786;59;2001;-20
2024/01/03 16:02:34;;;;;;;;;;;;;;;;;;2203842;59;2101;-18
2024/01/03 16:05:05;;;;;;;;;;;;;;;;;;2199001;59;2412;-20
2024/01/03 16:07:35;;;;;;;;;;;;;;;;;;2201208;59;1783;-20
2024/01/03 16:10:06;;;;;;;;;;;;;;;;;;2199043;59;1809;-18
2024/01/03 16:12:36;;;;;;;;;;;;;;;;;;2203614;67;1820;-20
2024/01/03 16:15:07;;;;;;;;;;;;;;;;;;2202550;59;2484;-19
2024/01/03 16:17:37;;;;;;;;;;;;;;;;;;2203129;59;2204;-20
2024/01/03 16:20:08;;;;;;;;;;;;;;;;;;2202100;59;1841;-18
2024/01/03 16:22:39;;;;;;;;;;;;;;;;;;2204603;67;2677;-20
2024/01/03 16:25:12;;;;;;;;;;;;;;;;;;2202091;59;1985;-18
2024/01/03 16:27:45;;;;;;;;;;;;;;;;;;2203172;67;1944;-18
2024/01/03 16:30:15;;;;;;;;;;;;;;;;;;2202222;59;1915;-20
2024/01/03 16:32:47;;;;;;;;;;;;;;;;;;2201374;67;2724;-18
2024/01/03 16:35:18;;;;;;;;;;;;;;;;;;2201076;59;2017;-18
2024/01/03 16:37:48;;;;;;;;;;;;;;;;;;2203379;59;1937;-18
2024/01/03 16:40:19;;;;;;;;;;;;;;;;;;2202805;67;1888;-18
2024/01/03 16:42:50;;;;;;;;;;;;;;;;;;2203485;67;1861;-20
2024/01/03 16:45:22;;;;;;;;;;;;;;;;;;2201512;59;2300;-20
2024/01/03 16:47:52;;;;;;;;;;;;;;;;;;2202868;67;1963;-20
2024/01/03 16:50:23;;;;;;;;;;;;;;;;;;2200317;67;1874;-20
2024/01/03 16:52:53;;;;;;;;;;;;;;;;;;2201879;59;2817;-18
2024/01/03 16:55:24;;;;;;;;;;;;;;;;;;2200336;59;2763;-18
2024/01/03 16:57:54;;;;;;;;;;;;;;;;;;2201974;59;3937;-20
2024/01/03 17:00:25;;;;;;;;;;;;;;;;;;2201784;59;2021;-18
2024/01/03 17:02:58;;;;;;;;;;;;;;;;;;2202098;59;1967;-18
2024/01/03 17:05:32;;;;;;;;;;;;;;;;;;2202627;67;1821;-18
2024/01/03 17:08:03;;;;;;;;;;;;;;;;;;2202273;59;2368;-18
2024/01/03 17:10:33;;;;;;;;;;;;;;;;;;2202026;59;5439;-20
2024/01/03 17:13:04;;;;;;;;;;;;;;;;;;2201673;59;1987;-20
2024/01/03 17:15:35;;;;;;;;;;;;;;;;;;2202995;59;2012;-18
2024/01/03 17:18:05;;;;;;;;;;;;;;;;;;2202448;59;2007;-18
2024/01/03 17:20:36;;;;;;;;;;;;;;;;;;2203549;59;1834;-18
2024/01/03 17:23:06;;;;;;;;;;;;;;;;;;2201444;67;1858;-20
2024/01/03 17:25:36;;;;;;;;;;;;;;;;;;2203169;59;2112;-18
2024/01/03 17:28:08;;;;;;;;;;;;;;;;;;2202177;59;1872;-20
2024/01/03 17:30:39;;;;;;;;;;;;;;;;;;2203449;59;1797;-20